Terminal Aerodrome Forecast
Issued by NWS Wilmington, OH

Current Version | Previous Version | Text Only | Print | Product List | Glossary On
Versions: 1 2 3 4 5 6 7 8 9 10 11 12 13 14 15 16 17 18 19 20 21 22 23 24 25
709
FTUS41 KILN 300535
TAFILN
TAF
KILN 300535Z 3006/3106 23006KT P6SM SCT100
     FM301100 26005KT P6SM FEW100
     FM301600 26014G22KT P6SM FEW060
     FM310000 27008KT P6SM FEW080
     FM310500 21004KT P6SM SCT100=

USA.gov is the U.S. government's official web portal to all federal, state and local government web resources and services.